sensor_id;sensor_type;location;lat;lon;timestamp;pressure;altitude;pressure_sealevel;temperature;humidity
82872;BME280;72646;43.596;1.428;2024-01-30T00:00:35;100939.78;;;17.79;51.82
82872;BME280;72646;43.596;1.428;2024-01-30T00:03:00;100954.22;;;17.81;52.23
82872;BME280;72646;43.596;1.428;2024-01-30T00:05:25;100947.41;;;17.77;52.12
82872;BME280;72646;43.596;1.428;2024-01-30T00:07:51;100957.59;;;17.83;51.92
82872;BME280;72646;43.596;1.428;2024-01-30T00:10:16;100946.97;;;17.80;52.17
82872;BME280;72646;43.596;1.428;2024-01-30T00:12:41;100956.31;;;17.85;51.92
82872;BME280;72646;43.596;1.428;2024-01-30T00:15:07;100951.00;;;17.84;51.72
82872;BME280;72646;43.596;1.428;2024-01-30T00:17:38;100934.69;;;17.76;52.11
82872;BME280;72646;43.596;1.428;2024-01-30T00:20:04;100936.16;;;17.78;51.96
82872;BME280;72646;43.596;1.428;2024-01-30T00:22:31;100940.41;;;17.81;51.70
82872;BME280;72646;43.596;1.428;2024-01-30T00:24:57;100941.25;;;17.81;51.85
82872;BME280;72646;43.596;1.428;2024-01-30T00:27:22;100921.72;;;17.76;51.82
82872;BME280;72646;43.596;1.428;2024-01-30T00:29:48;100945.47;;;17.84;52.12
82872;BME280;72646;43.596;1.428;2024-01-30T00:32:13;100928.28;;;17.82;51.97
82872;BME280;72646;43.596;1.428;2024-01-30T00:34:38;100931.28;;;17.80;51.84
82872;BME280;72646;43.596;1.428;2024-01-30T00:37:04;100941.03;;;17.83;51.90
82872;BME280;72646;43.596;1.428;2024-01-30T00:39:29;100930.41;;;17.80;51.87
82872;BME280;72646;43.596;1.428;2024-01-30T00:41:55;100933.81;;;17.75;52.15
82872;BME280;72646;43.596;1.428;2024-01-30T00:44:20;100928.75;;;17.72;52.06
82872;BME280;72646;43.596;1.428;2024-01-30T00:46:45;100931.50;;;17.79;52.11
82872;BME280;72646;43.596;1.428;2024-01-30T00:49:11;100929.16;;;17.76;51.77
82872;BME280;72646;43.596;1.428;2024-01-30T00:51:36;100922.78;;;17.75;52.20
82872;BME280;72646;43.596;1.428;2024-01-30T00:54:02;100932.13;;;17.81;51.86
82872;BME280;72646;43.596;1.428;2024-01-30T00:56:28;100939.56;;;17.80;51.92
82872;BME280;72646;43.596;1.428;2024-01-30T00:58:53;100932.56;;;17.78;52.08
82872;BME280;72646;43.596;1.428;2024-01-30T01:01:19;100937.66;;;17.81;51.91
82872;BME280;72646;43.596;1.428;2024-01-30T01:03:44;100917.03;;;17.77;51.95
82872;BME280;72646;43.596;1.428;2024-01-30T01:06:09;100923.84;;;17.74;52.13
82872;BME280;72646;43.596;1.428;2024-01-30T01:08:35;100946.16;;;17.79;52.10
82872;BME280;72646;43.596;1.428;2024-01-30T01:11:01;100935.09;;;17.79;51.99
82872;BME280;72646;43.596;1.428;2024-01-30T01:13:26;100934.91;;;17.81;52.02
82872;BME280;72646;43.596;1.428;2024-01-30T01:15:51;100921.72;;;17.76;51.88
82872;BME280;72646;43.596;1.428;2024-01-30T01:18:17;100937.19;;;17.84;51.97
82872;BME280;72646;43.596;1.428;2024-01-30T01:20:42;100935.09;;;17.79;51.96
82872;BME280;72646;43.596;1.428;2024-01-30T01:23:08;100939.13;;;17.77;52.13
82872;BME280;72646;43.596;1.428;2024-01-30T01:25:33;100948.22;;;17.84;51.89
82872;BME280;72646;43.596;1.428;2024-01-30T01:27:58;100936.38;;;17.77;51.70
82872;BME280;72646;43.596;1.428;2024-01-30T01:30:26;100945.47;;;17.84;51.97
82872;BME280;72646;43.596;1.428;2024-01-30T01:32:51;100935.09;;;17.79;51.98
82872;BME280;72646;43.596;1.428;2024-01-30T01:35:22;100954.22;;;17.81;51.61
82872;BME280;72646;43.596;1.428;2024-01-30T01:37:50;100951.00;;;17.84;51.76
82872;BME280;72646;43.596;1.428;2024-01-30T01:40:22;100942.09;;;17.82;51.91
82872;BME280;72646;43.596;1.428;2024-01-30T01:42:47;100935.31;;;17.78;52.06
82872;BME280;72646;43.596;1.428;2024-01-30T01:45:13;100956.13;;;17.80;51.66
82872;BME280;72646;43.596;1.428;2024-01-30T01:47:39;100966.09;;;17.88;51.57
82872;BME280;72646;43.596;1.428;2024-01-30T01:50:05;100968.22;;;17.86;51.81
82872;BME280;72646;43.596;1.428;2024-01-30T01:52:31;100959.94;;;17.86;51.49
82872;BME280;72646;43.596;1.428;2024-01-30T01:54:56;100957.59;;;17.83;51.54
82872;BME280;72646;43.596;1.428;2024-01-30T01:57:22;100968.22;;;17.86;51.64
82872;BME280;72646;43.596;1.428;2024-01-30T01:59:47;100963.56;;;17.80;51.82
82872;BME280;72646;43.596;1.428;2024-01-30T02:02:14;100964.81;;;17.84;51.83
82872;BME280;72646;43.596;1.428;2024-01-30T02:04:41;100953.97;;;17.82;51.67
82872;BME280;72646;43.596;1.428;2024-01-30T02:07:07;100949.09;;;17.84;51.63
82872;BME280;72646;43.596;1.428;2024-01-30T02:09:32;100958.03;;;17.86;51.89
82872;BME280;72646;43.596;1.428;2024-01-30T02:11:58;100958.03;;;17.86;51.53
82872;BME280;72646;43.596;1.428;2024-01-30T02:14:23;100944.88;;;17.75;51.59
82872;BME280;72646;43.596;1.428;2024-01-30T02:16:48;100948.06;;;17.79;51.79
82872;BME280;72646;43.596;1.428;2024-01-30T02:19:14;100959.94;;;17.86;51.92
82872;BME280;72646;43.596;1.428;2024-01-30T02:21:39;100926.84;;;17.73;51.77
82872;BME280;72646;43.596;1.428;2024-01-30T02:24:05;100936.56;;;17.82;51.80
82872;BME280;72646;43.596;1.428;2024-01-30T02:26:31;100933.00;;;17.75;51.81
82872;BME280;72646;43.596;1.428;2024-01-30T02:28:56;100953.16;;;17.82;51.62
82872;BME280;72646;43.596;1.428;2024-01-30T02:31:21;100961.63;;;17.87;51.89
82872;BME280;72646;43.596;1.428;2024-01-30T02:33:47;100956.09;;;17.87;51.55
82872;BME280;72646;43.596;1.428;2024-01-30T02:36:12;100942.09;;;17.82;51.79
82872;BME280;72646;43.596;1.428;2024-01-30T02:38:38;100951.22;;;17.82;51.53
82872;BME280;72646;43.596;1.428;2024-01-30T02:41:03;100963.75;;;17.85;51.67
82872;BME280;72646;43.596;1.428;2024-01-30T02:43:28;100952.50;;;17.80;51.62
82872;BME280;72646;43.596;1.428;2024-01-30T02:45:54;100958.69;;;17.82;51.91
82872;BME280;72646;43.596;1.428;2024-01-30T02:48:19;100958.69;;;17.82;51.69
82872;BME280;72646;43.596;1.428;2024-01-30T02:50:45;100965.03;;;17.82;51.94
82872;BME280;72646;43.596;1.428;2024-01-30T02:53:11;100964.16;;;17.88;51.81
82872;BME280;72646;43.596;1.428;2024-01-30T02:55:36;100957.00;;;17.81;51.61
82872;BME280;72646;43.596;1.428;2024-01-30T02:58:01;100969.47;;;17.90;51.51
82872;BME280;72646;43.596;1.428;2024-01-30T03:00:27;100970.53;;;17.89;51.58
82872;BME280;72646;43.596;1.428;2024-01-30T03:02:52;100965.88;;;17.89;51.49
82872;BME280;72646;43.596;1.428;2024-01-30T03:05:18;100967.56;;;17.84;51.59
82872;BME280;72646;43.596;1.428;2024-01-30T03:07:43;100961.63;;;17.87;51.54
82872;BME280;72646;43.596;1.428;2024-01-30T03:10:09;100965.88;;;17.89;51.64
82872;BME280;72646;43.596;1.428;2024-01-30T03:12:34;100957.81;;;17.81;51.45
82872;BME280;72646;43.596;1.428;2024-01-30T03:15:00;100966.53;;;17.85;51.67
82872;BME280;72646;43.596;1.428;2024-01-30T03:17:25;100954.63;;;17.84;51.88
82872;BME280;72646;43.596;1.428;2024-01-30T03:19:51;100966.91;;;17.88;51.58
82872;BME280;72646;43.596;1.428;2024-01-30T03:22:16;100940.84;;;17.78;51.37
82872;BME280;72646;43.596;1.428;2024-01-30T03:24:42;100946.16;;;17.79;51.74
82872;BME280;72646;43.596;1.428;2024-01-30T03:27:08;100970.53;;;17.89;51.76
82872;BME280;72646;43.596;1.428;2024-01-30T03:29:33;100963.94;;;17.90;51.70
82872;BME280;72646;43.596;1.428;2024-01-30T03:31:59;100972.44;;;17.88;51.61
82872;BME280;72646;43.596;1.428;2024-01-30T03:34:24;100963.75;;;17.85;52.02
82872;BME280;72646;43.596;1.428;2024-01-30T03:36:50;100973.53;;;17.87;51.56
82872;BME280;72646;43.596;1.428;2024-01-30T03:39:15;100968.84;;;17.88;51.58
82872;BME280;72646;43.596;1.428;2024-01-30T03:41:43;100985.44;;;17.88;52.04
82872;BME280;72646;43.596;1.428;2024-01-30T03:44:10;100979.03;;;17.87;51.83
82872;BME280;72646;43.596;1.428;2024-01-30T03:46:35;100979.69;;;17.89;51.83
82872;BME280;72646;43.596;1.428;2024-01-30T03:49:00;100986.91;;;17.90;51.85
82872;BME280;72646;43.596;1.428;2024-01-30T03:51:26;100975.84;;;17.84;51.75
82872;BME280;72646;43.596;1.428;2024-01-30T03:53:51;100992.44;;;17.90;51.57
82872;BME280;72646;43.596;1.428;2024-01-30T03:56:16;100995.19;;;17.90;51.73
82872;BME280;72646;43.596;1.428;2024-01-30T03:58:42;100983.75;;;17.80;52.03
82872;BME280;72646;43.596;1.428;2024-01-30T04:01:07;101003.69;;;17.89;51.48
82872;BME280;72646;43.596;1.428;2024-01-30T04:03:37;100985.00;;;17.91;51.58
82872;BME280;72646;43.596;1.428;2024-01-30T04:06:04;100997.09;;;17.90;51.59
82872;BME280;72646;43.596;1.428;2024-01-30T04:08:29;100983.28;;;17.90;51.64
82872;BME280;72646;43.596;1.428;2024-01-30T04:10:55;100980.78;;;17.82;51.79
82872;BME280;72646;43.596;1.428;2024-01-30T04:13:20;100979.47;;;17.84;51.88
82872;BME280;72646;43.596;1.428;2024-01-30T04:15:46;100983.72;;;17.87;52.04
82872;BME280;72646;43.596;1.428;2024-01-30T04:18:11;100983.72;;;17.87;51.79
82872;BME280;72646;43.596;1.428;2024-01-30T04:20:36;100972.69;;;17.80;51.75
82872;BME280;72646;43.596;1.428;2024-01-30T04:23:02;100978.19;;;17.87;51.63
82872;BME280;72646;43.596;1.428;2024-01-30T04:25:27;100979.91;;;17.81;51.88
82872;BME280;72646;43.596;1.428;2024-01-30T04:27:53;100979.09;;;17.81;51.60
82872;BME280;72646;43.596;1.428;2024-01-30T04:30:18;100987.59;;;17.79;51.83
82872;BME280;72646;43.596;1.428;2024-01-30T04:32:44;100994.38;;;17.83;51.91
82872;BME280;72646;43.596;1.428;2024-01-30T04:35:09;101011.34;;;17.87;51.91
82872;BME280;72646;43.596;1.428;2024-01-30T04:37:35;100993.72;;;17.81;51.64
82872;BME280;72646;43.596;1.428;2024-01-30T04:40:00;101001.19;;;17.81;51.48
82872;BME280;72646;43.596;1.428;2024-01-30T04:42:25;100999.47;;;17.80;51.82
82872;BME280;72646;43.596;1.428;2024-01-30T04:44:51;101007.97;;;17.85;51.76
82872;BME280;72646;43.596;1.428;2024-01-30T04:47:16;100996.75;;;17.73;51.92
82872;BME280;72646;43.596;1.428;2024-01-30T04:49:42;101018.78;;;17.86;51.68
82872;BME280;72646;43.596;1.428;2024-01-30T04:52:08;101013.50;;;17.85;51.87
82872;BME280;72646;43.596;1.428;2024-01-30T04:54:34;101020.69;;;17.86;51.64
82872;BME280;72646;43.596;1.428;2024-01-30T04:57:00;101033.44;;;17.87;51.88
82872;BME280;72646;43.596;1.428;2024-01-30T04:59:26;101036.41;;;17.85;51.85
82872;BME280;72646;43.596;1.428;2024-01-30T05:01:51;101025.78;;;17.82;52.04
82872;BME280;72646;43.596;1.428;2024-01-30T05:04:16;101038.97;;;17.87;51.74
82872;BME280;72646;43.596;1.428;2024-01-30T05:06:42;101036.41;;;17.85;51.58
82872;BME280;72646;43.596;1.428;2024-01-30T05:09:08;101036.22;;;17.80;52.00
82872;BME280;72646;43.596;1.428;2024-01-30T05:11:38;101037.28;;;17.86;51.43
82872;BME280;72646;43.596;1.428;2024-01-30T05:14:04;101044.47;;;17.87;51.78
82872;BME280;72646;43.596;1.428;2024-01-30T05:16:29;101055.97;;;17.84;51.96
82872;BME280;72646;43.596;1.428;2024-01-30T05:18:55;101050.91;;;17.81;51.73
82872;BME280;72646;43.596;1.428;2024-01-30T05:21:20;101054.91;;;17.78;51.58
82872;BME280;72646;43.596;1.428;2024-01-30T05:23:46;101072.97;;;17.87;51.64
82872;BME280;72646;43.596;1.428;2024-01-30T05:26:11;101080.41;;;17.87;51.88
82872;BME280;72646;43.596;1.428;2024-01-30T05:28:36;101078.50;;;17.87;51.83
82872;BME280;72646;43.596;1.428;2024-01-30T05:31:02;101078.72;;;17.86;51.80
82872;BME280;72646;43.596;1.428;2024-01-30T05:33:28;101070.84;;;17.83;51.69
82872;BME280;72646;43.596;1.428;2024-01-30T05:35:53;101071.06;;;17.81;51.34
82872;BME280;72646;43.596;1.428;2024-01-30T05:38:20;101067.88;;;17.84;51.68
82872;BME280;72646;43.596;1.428;2024-01-30T05:40:45;101069.13;;;17.88;51.61
82872;BME280;72646;43.596;1.428;2024-01-30T05:43:11;101072.13;;;17.87;51.51
82872;BME280;72646;43.596;1.428;2024-01-30T05:45:36;101061.72;;;17.89;51.58
82872;BME280;72646;43.596;1.428;2024-01-30T05:48:02;101068.31;;;17.88;51.65
82872;BME280;72646;43.596;1.428;2024-01-30T05:50:27;101070.84;;;17.89;51.82
82872;BME280;72646;43.596;1.428;2024-01-30T05:52:53;101061.50;;;17.84;51.58
82872;BME280;72646;43.596;1.428;2024-01-30T05:55:18;101054.91;;;17.85;51.51
82872;BME280;72646;43.596;1.428;2024-01-30T05:57:44;101067.44;;;17.87;51.53
82872;BME280;72646;43.596;1.428;2024-01-30T06:00:09;101067.22;;;17.89;51.65
82872;BME280;72646;43.596;1.428;2024-01-30T06:02:35;101059.59;;;17.84;51.66
82872;BME280;72646;43.596;1.428;2024-01-30T06:05:01;101060.44;;;17.85;51.82
82872;BME280;72646;43.596;1.428;2024-01-30T06:07:26;101067.44;;;17.87;51.73
82872;BME280;72646;43.596;1.428;2024-01-30T06:09:51;101060.66;;;17.83;51.77
82872;BME280;72646;43.596;1.428;2024-01-30T06:12:17;101077.41;;;17.88;51.79
82872;BME280;72646;43.596;1.428;2024-01-30T06:14:42;101073.41;;;17.84;51.76
82872;BME280;72646;43.596;1.428;2024-01-30T06:17:08;101074.69;;;17.82;51.72
82872;BME280;72646;43.596;1.428;2024-01-30T06:19:34;101084.88;;;17.88;51.73
82872;BME280;72646;43.596;1.428;2024-01-30T06:21:59;101080.41;;;17.87;51.65
82872;BME280;72646;43.596;1.428;2024-01-30T06:24:25;101089.34;;;17.89;51.82
82872;BME280;72646;43.596;1.428;2024-01-30T06:26:50;101087.44;;;17.89;51.79
82872;BME280;72646;43.596;1.428;2024-01-30T06:29:16;101077.44;;;17.82;51.56
82872;BME280;72646;43.596;1.428;2024-01-30T06:31:42;101089.75;;;17.86;51.63
82872;BME280;72646;43.596;1.428;2024-01-30T06:34:08;101082.75;;;17.83;51.65
82872;BME280;72646;43.596;1.428;2024-01-30T06:36:34;101092.53;;;17.86;51.64
82872;BME280;72646;43.596;1.428;2024-01-30T06:38:59;101086.81;;;17.81;51.58
82872;BME280;72646;43.596;1.428;2024-01-30T06:41:25;101094.03;;;17.82;51.72
82872;BME280;72646;43.596;1.428;2024-01-30T06:43:50;101109.75;;;17.88;51.70
82872;BME280;72646;43.596;1.428;2024-01-30T06:46:16;101095.31;;;17.79;51.73
82872;BME280;72646;43.596;1.428;2024-01-30T06:48:41;101100.63;;;17.81;51.64
82872;BME280;72646;43.596;1.428;2024-01-30T06:51:10;101107.84;;;17.82;51.63
82872;BME280;72646;43.596;1.428;2024-01-30T06:53:35;101115.06;;;17.89;51.74
82872;BME280;72646;43.596;1.428;2024-01-30T06:56:01;101118.03;;;17.88;51.69
82872;BME280;72646;43.596;1.428;2024-01-30T06:58:26;101121.84;;;17.87;51.89
82872;BME280;72646;43.596;1.428;2024-01-30T07:00:51;101116.75;;;17.84;51.87
82872;BME280;72646;43.596;1.428;2024-01-30T07:03:17;101123.56;;;17.88;51.70
82872;BME280;72646;43.596;1.428;2024-01-30T07:05:42;101095.53;;;17.78;51.88
82872;BME280;72646;43.596;1.428;2024-01-30T07:08:08;101108.66;;;17.82;51.72
82872;BME280;72646;43.596;1.428;2024-01-30T07:10:33;101109.31;;;17.84;51.64
82872;BME280;72646;43.596;1.428;2024-01-30T07:13:00;101109.31;;;17.84;51.90
82872;BME280;72646;43.596;1.428;2024-01-30T07:15:26;101109.09;;;17.86;51.80
82872;BME280;72646;43.596;1.428;2024-01-30T07:17:51;101101.25;;;17.83;52.10
82872;BME280;72646;43.596;1.428;2024-01-30T07:20:16;101117.19;;;17.87;51.78
82872;BME280;72646;43.596;1.428;2024-01-30T07:22:45;101110.81;;;17.80;51.90
82872;BME280;72646;43.596;1.428;2024-01-30T07:25:10;101122.91;;;17.86;51.68
82872;BME280;72646;43.596;1.428;2024-01-30T07:27:36;101115.47;;;17.80;51.83
82872;BME280;72646;43.596;1.428;2024-01-30T07:30:02;101125.03;;;17.84;51.89
82872;BME280;72646;43.596;1.428;2024-01-30T07:32:27;101119.72;;;17.82;51.89
82872;BME280;72646;43.596;1.428;2024-01-30T07:34:53;101119.09;;;17.80;51.74
82872;BME280;72646;43.596;1.428;2024-01-30T07:37:18;101137.38;;;17.88;51.92
82872;BME280;72646;43.596;1.428;2024-01-30T07:39:44;101119.94;;;17.87;51.86
82872;BME280;72646;43.596;1.428;2024-01-30T07:42:10;101128.00;;;17.82;51.90
82872;BME280;72646;43.596;1.428;2024-01-30T07:44:35;101124.63;;;17.80;52.04
82872;BME280;72646;43.596;1.428;2024-01-30T07:47:01;101120.38;;;17.78;51.86
82872;BME280;72646;43.596;1.428;2024-01-30T07:49:28;101125.50;;;17.81;51.93
82872;BME280;72646;43.596;1.428;2024-01-30T07:51:53;101114.66;;;17.60;51.79
82872;BME280;72646;43.596;1.428;2024-01-30T07:54:19;101173.28;;;17.88;52.18
82872;BME280;72646;43.596;1.428;2024-01-30T07:56:44;101160.31;;;17.82;52.02
82872;BME280;72646;43.596;1.428;2024-01-30T07:59:10;101170.31;;;17.89;51.72
82872;BME280;72646;43.596;1.428;2024-01-30T08:01:36;101154.56;;;17.77;52.13
82872;BME280;72646;43.596;1.428;2024-01-30T08:04:01;101174.53;;;17.85;51.77
82872;BME280;72646;43.596;1.428;2024-01-30T08:06:27;101160.94;;;17.84;52.13
82872;BME280;72646;43.596;1.428;2024-01-30T08:08:52;101163.50;;;17.92;51.78
82872;BME280;72646;43.596;1.428;2024-01-30T08:11:20;101166.03;;;17.87;51.83
82872;BME280;72646;43.596;1.428;2024-01-30T08:13:51;101155.00;;;17.87;51.80
82872;BME280;72646;43.596;1.428;2024-01-30T08:16:16;101175.16;;;17.94;51.92
82872;BME280;72646;43.596;1.428;2024-01-30T08:18:42;101152.84;;;17.95;51.80
82872;BME280;72646;43.596;1.428;2024-01-30T08:21:07;101164.75;;;17.96;51.94
82872;BME280;72646;43.596;1.428;2024-01-30T08:23:34;101160.94;;;17.90;52.17
82872;BME280;72646;43.596;1.428;2024-01-30T08:25:59;101163.50;;;17.92;51.87
82872;BME280;72646;43.596;1.428;2024-01-30T08:28:25;101157.31;;;17.90;51.98
82872;BME280;72646;43.596;1.428;2024-01-30T08:30:51;101170.06;;;17.97;51.88
82872;BME280;72646;43.596;1.428;2024-01-30T08:33:16;101167.53;;;17.96;51.96
82872;BME280;72646;43.596;1.428;2024-01-30T08:35:42;101173.69;;;17.98;51.80
82872;BME280;72646;43.596;1.428;2024-01-30T08:38:07;101172.84;;;17.97;52.03
82872;BME280;72646;43.596;1.428;2024-01-30T08:40:33;101163.25;;;18.00;51.96
82872;BME280;72646;43.596;1.428;2024-01-30T08:42:58;101179.84;;;18.00;51.99
82872;BME280;72646;43.596;1.428;2024-01-30T08:45:23;101152.88;;;17.82;51.80
82872;BME280;72646;43.596;1.428;2024-01-30T08:47:49;101171.78;;;17.92;51.80
82872;BME280;72646;43.596;1.428;2024-01-30T08:50:14;101153.53;;;17.91;52.00
82872;BME280;72646;43.596;1.428;2024-01-30T08:52:40;101166.88;;;17.94;51.99
82872;BME280;72646;43.596;1.428;2024-01-30T08:55:05;101173.50;;;17.99;52.03
82872;BME280;72646;43.596;1.428;2024-01-30T08:57:31;101178.16;;;17.99;51.93
82872;BME280;72646;43.596;1.428;2024-01-30T08:59:56;101164.34;;;17.86;51.78
82872;BME280;72646;43.596;1.428;2024-01-30T09:02:22;101174.97;;;17.89;52.34
82872;BME280;72646;43.596;1.428;2024-01-30T09:04:47;101193.03;;;17.98;51.86
82872;BME280;72646;43.596;1.428;2024-01-30T09:07:13;101181.56;;;17.94;52.12
82872;BME280;72646;43.596;1.428;2024-01-30T09:09:39;101190.91;;;17.93;52.46
82872;BME280;72646;43.596;1.428;2024-01-30T09:12:06;101189.19;;;17.92;52.30
82872;BME280;72646;43.596;1.428;2024-01-30T09:14:32;101202.16;;;17.98;52.16
82872;BME280;72646;43.596;1.428;2024-01-30T09:16:57;101204.09;;;17.98;52.18
82872;BME280;72646;43.596;1.428;2024-01-30T09:19:23;101202.19;;;17.92;52.32
82872;BME280;72646;43.596;1.428;2024-01-30T09:21:48;101185.16;;;17.88;51.99
82872;BME280;72646;43.596;1.428;2024-01-30T09:24:13;101216.19;;;17.97;52.11
82872;BME280;72646;43.596;1.428;2024-01-30T09:26:39;101210.44;;;17.98;52.12
82872;BME280;72646;43.596;1.428;2024-01-30T09:29:04;101207.69;;;17.98;52.28
82872;BME280;72646;43.596;1.428;2024-01-30T09:31:30;101201.97;;;17.93;52.36
82872;BME280;72646;43.596;1.428;2024-01-30T09:33:55;101217.03;;;17.97;52.12
82872;BME280;72646;43.596;1.428;2024-01-30T09:36:21;101212.59;;;17.96;52.52
82872;BME280;72646;43.596;1.428;2024-01-30T09:38:47;101192.41;;;17.89;52.24
82872;BME280;72646;43.596;1.428;2024-01-30T09:41:12;101198.34;;;17.93;52.15
82872;BME280;72646;43.596;1.428;2024-01-30T09:43:38;101189.63;;;17.96;52.38
82872;BME280;72646;43.596;1.428;2024-01-30T09:46:11;101200.50;;;17.91;52.58
82872;BME280;72646;43.596;1.428;2024-01-30T09:48:40;101198.34;;;17.93;52.19
82872;BME280;72646;43.596;1.428;2024-01-30T09:51:07;101188.97;;;17.94;52.20
82872;BME280;72646;43.596;1.428;2024-01-30T09:53:33;101195.16;;;17.96;52.10
82872;BME280;72646;43.596;1.428;2024-01-30T09:55:58;101196.84;;;17.97;52.04
82872;BME280;72646;43.596;1.428;2024-01-30T09:58:25;101192.19;;;17.84;51.99
82872;BME280;72646;43.596;1.428;2024-01-30T10:00:51;101202.19;;;17.92;51.93
82872;BME280;72646;43.596;1.428;2024-01-30T10:03:18;101214.94;;;17.99;52.03
82872;BME280;72646;43.596;1.428;2024-01-30T10:05:45;101220.47;;;17.99;52.09
82872;BME280;72646;43.596;1.428;2024-01-30T10:08:16;101218.72;;;17.98;51.88
82872;BME280;72646;43.596;1.428;2024-01-30T10:10:46;101189.44;;;17.91;51.84
82872;BME280;72646;43.596;1.428;2024-01-30T10:13:11;101197.06;;;17.89;51.98
82872;BME280;72646;43.596;1.428;2024-01-30T10:15:37;101197.28;;;17.87;51.97
82872;BME280;72646;43.596;1.428;2024-01-30T10:18:04;101202.78;;;17.94;51.62
82872;BME280;72646;43.596;1.428;2024-01-30T10:20:32;101208.53;;;17.99;51.93
82872;BME280;72646;43.596;1.428;2024-01-30T10:22:57;101193.47;;;17.95;51.92
82872;BME280;72646;43.596;1.428;2024-01-30T10:25:23;101205.13;;;17.97;51.84
82872;BME280;72646;43.596;1.428;2024-01-30T10:27:53;101182.81;;;17.85;51.95
82872;BME280;72646;43.596;1.428;2024-01-30T10:30:19;101207.28;;;17.95;51.80
82872;BME280;72646;43.596;1.428;2024-01-30T10:32:45;101213.00;;;18.00;51.83
82872;BME280;72646;43.596;1.428;2024-01-30T10:35:10;101201.75;;;17.88;52.07
82872;BME280;72646;43.596;1.428;2024-01-30T10:37:35;101210.66;;;17.97;51.96
82872;BME280;72646;43.596;1.428;2024-01-30T10:40:03;101196.66;;;17.92;51.83
82872;BME280;72646;43.596;1.428;2024-01-30T10:42:32;101190.91;;;17.93;52.22
82872;BME280;72646;43.596;1.428;2024-01-30T10:45:09;101194.09;;;17.97;51.82
82872;BME280;72646;43.596;1.428;2024-01-30T10:47:39;101214.69;;;18.01;51.91
82872;BME280;72646;43.596;1.428;2024-01-30T10:50:05;101194.09;;;17.90;52.17
82872;BME280;72646;43.596;1.428;2024-01-30T10:52:33;101202.16;;;17.98;51.62
82872;BME280;72646;43.596;1.428;2024-01-30T10:54:59;101198.13;;;17.94;51.81
82872;BME280;72646;43.596;1.428;2024-01-30T10:57:26;101202.38;;;17.97;51.89
82872;BME280;72646;43.596;1.428;2024-01-30T10:59:59;101199.19;;;18.00;51.69
82872;BME280;72646;43.596;1.428;2024-01-30T11:02:26;101183.47;;;17.94;51.96
82872;BME280;72646;43.596;1.428;2024-01-30T11:04:57;101208.75;;;18.04;51.83
82872;BME280;72646;43.596;1.428;2024-01-30T11:07:28;101192.81;;;17.99;51.97
82872;BME280;72646;43.596;1.428;2024-01-30T11:12:28;101193.66;;;18.00;51.90
82872;BME280;72646;43.596;1.428;2024-01-30T11:15:11;101198.97;;;18.01;51.96
82872;BME280;72646;43.596;1.428;2024-01-30T11:17:54;101195.59;;;17.99;51.80
82872;BME280;72646;43.596;1.428;2024-01-30T11:20:22;101197.69;;;18.04;51.98
82872;BME280;72646;43.596;1.428;2024-01-30T11:22:51;101193.44;;;18.01;51.99
82872;BME280;72646;43.596;1.428;2024-01-30T11:25:18;101177.09;;;17.93;52.11
82872;BME280;72646;43.596;1.428;2024-01-30T11:27:45;101181.53;;;18.01;51.97
82872;BME280;72646;43.596;1.428;2024-01-30T11:30:32;101187.50;;;18.04;51.95
82872;BME280;72646;43.596;1.428;2024-01-30T11:33:07;101176.88;;;18.01;51.91
82872;BME280;72646;43.596;1.428;2024-01-30T11:35:51;101165.41;;;17.98;51.84
82872;BME280;72646;43.596;1.428;2024-01-30T11:38:17;101171.97;;;17.97;51.94
82872;BME280;72646;43.596;1.428;2024-01-30T11:40:43;101173.25;;;18.01;51.69
82872;BME280;72646;43.596;1.428;2024-01-30T11:43:09;101161.53;;;18.05;51.66
82872;BME280;72646;43.596;1.428;2024-01-30T11:45:35;101167.06;;;18.05;51.87
82872;BME280;72646;43.596;1.428;2024-01-30T11:48:02;101182.81;;;18.05;51.75
82872;BME280;72646;43.596;1.428;2024-01-30T11:50:31;101170.06;;;18.04;51.43
82872;BME280;72646;43.596;1.428;2024-01-30T11:52:57;101156.88;;;18.06;51.50
82872;BME280;72646;43.596;1.428;2024-01-30T11:55:23;101145.00;;;17.99;51.68
82872;BME280;72646;43.596;1.428;2024-01-30T11:57:48;101140.09;;;18.01;51.66
82872;BME280;72646;43.596;1.428;2024-01-30T12:00:17;101147.72;;;18.05;51.45
82872;BME280;72646;43.596;1.428;2024-01-30T12:02:54;101148.59;;;18.06;51.51
82872;BME280;72646;43.596;1.428;2024-01-30T12:05:26;101143.28;;;18.04;51.54
82872;BME280;72646;43.596;1.428;2024-01-30T12:07:52;101150.94;;;18.09;51.36
82872;BME280;72646;43.596;1.428;2024-01-30T12:10:17;101148.59;;;18.06;51.62
82872;BME280;72646;43.596;1.428;2024-01-30T12:12:49;101148.78;;;18.11;51.16
82872;BME280;72646;43.596;1.428;2024-01-30T12:15:15;101156.44;;;18.09;51.33
82872;BME280;72646;43.596;1.428;2024-01-30T12:17:41;101135.84;;;18.05;51.34
82872;BME280;72646;43.596;1.428;2024-01-30T12:20:11;101144.53;;;18.08;51.14
82872;BME280;72646;43.596;1.428;2024-01-30T12:22:38;101136.47;;;18.07;51.22
82872;BME280;72646;43.596;1.428;2024-01-30T12:25:07;101139.00;;;18.08;51.18
82872;BME280;72646;43.596;1.428;2024-01-30T12:27:33;101134.78;;;18.06;51.44
82872;BME280;72646;43.596;1.428;2024-01-30T12:29:58;101135.81;;;18.11;51.20
82872;BME280;72646;43.596;1.428;2024-01-30T12:32:24;101130.72;;;18.08;51.15
82872;BME280;72646;43.596;1.428;2024-01-30T12:34:49;101129.44;;;18.11;51.38
82872;BME280;72646;43.596;1.428;2024-01-30T12:37:15;101118.41;;;18.04;51.43
82872;BME280;72646;43.596;1.428;2024-01-30T12:39:48;101123.91;;;18.11;51.18
82872;BME280;72646;43.596;1.428;2024-01-30T12:42:14;101111.41;;;18.02;51.32
82872;BME280;72646;43.596;1.428;2024-01-30T12:44:40;101123.69;;;18.12;51.24
82872;BME280;72646;43.596;1.428;2024-01-30T12:47:08;101108.22;;;18.05;51.35